createdAt,value
2018-02-09T00:00:05.864Z,973.18
2018-02-09T00:00:15.906Z,973.18
2018-02-09T00:00:25.988Z,973.18
2018-02-09T00:00:36.040Z,973.16
2018-02-09T00:00:46.103Z,973.2
2018-02-09T00:00:56.177Z,973.18
2018-02-09T00:01:06.198Z,973.16
2018-02-09T00:01:16.282Z,973.18
2018-02-09T00:01:26.348Z,973.2
2018-02-09T00:01:36.390Z,973.18
2018-02-09T00:01:46.472Z,973.13
2018-02-09T00:01:56.542Z,973.14
2018-02-09T00:02:06.584Z,973.14
2018-02-09T00:02:16.650Z,973.14
2018-02-09T00:02:26.718Z,973.14
2018-02-09T00:02:36.763Z,973.16
2018-02-09T00:02:46.839Z,973.2
2018-02-09T00:02:56.890Z,973.2
2018-02-09T00:03:06.947Z,973.16
2018-02-09T00:03:17.012Z,973.16
2018-02-09T00:03:27.054Z,973.16
2018-02-09T00:03:37.126Z,973.16
2018-02-09T00:03:47.190Z,973.16
2018-02-09T00:03:57.242Z,973.16
2018-02-09T00:04:07.318Z,973.16
2018-02-09T00:04:17.346Z,973.16
2018-02-09T00:04:27.419Z,973.16
2018-02-09T00:04:37.446Z,973.16
2018-02-09T00:04:47.529Z,973.16
2018-02-09T00:04:57.590Z,973.18
2018-02-09T00:05:07.621Z,973.16
2018-02-09T00:05:17.703Z,973.16
2018-02-09T00:05:27.769Z,973.18
2018-02-09T00:05:37.808Z,973.16
2018-02-09T00:05:47.890Z,973.18
2018-02-09T00:05:57.945Z,973.18
2018-02-09T00:06:08.028Z,973.16
2018-02-09T00:06:18.047Z,973.18
2018-02-09T00:06:28.123Z,973.18
2018-02-09T00:06:38.156Z,973.18
2018-02-09T00:06:48.225Z,973.18
2018-02-09T00:06:58.299Z,973.2
2018-02-09T00:07:08.340Z,973.18
2018-02-09T00:07:18.410Z,973.18
2018-02-09T00:07:28.446Z,973.18
2018-02-09T00:07:38.520Z,973.18
2018-02-09T00:07:48.594Z,973.2
2018-02-09T00:07:58.621Z,973.18
2018-02-09T00:08:08.706Z,973.18
2018-02-09T00:08:18.759Z,973.16
2018-02-09T00:08:28.812Z,973.18
2018-02-09T00:08:38.886Z,973.16
2018-02-09T00:08:48.796Z,973.18
2018-02-09T00:08:58.990Z,973.18
2018-02-09T00:09:09.053Z,973.18
2018-02-09T00:09:19.094Z,973.14
2018-02-09T00:09:29.177Z,973.18
2018-02-09T00:09:39.205Z,973.16
2018-02-09T00:09:49.290Z,973.18
2018-02-09T00:09:59.341Z,973.14
2018-02-09T00:10:09.397Z,973.16
2018-02-09T00:10:19.459Z,973.16
2018-02-09T00:10:29.495Z,973.14
2018-02-09T00:10:39.583Z,973.13
2018-02-09T00:10:49.636Z,973.16
2018-02-09T00:10:59.685Z,973.14
2018-02-09T00:11:09.753Z,973.14
2018-02-09T00:11:19.787Z,973.14
2018-02-09T00:11:29.868Z,973.14
2018-02-09T00:11:39.921Z,973.14
2018-02-09T00:11:49.965Z,973.11
2018-02-09T00:12:00.046Z,973.11
2018-02-09T00:12:10.097Z,973.11
2018-02-09T00:12:20.151Z,973.14
2018-02-09T00:12:30.212Z,973.13
2018-02-09T00:12:40.264Z,973.11
2018-02-09T00:12:50.323Z,973.13
2018-02-09T00:13:00.354Z,973.13
2018-02-09T00:13:10.430Z,973.13
2018-02-09T00:13:20.494Z,973.14
2018-02-09T00:13:30.533Z,973.13
2018-02-09T00:13:40.601Z,973.13
2018-02-09T00:13:50.637Z,973.13
2018-02-09T00:14:00.940Z,973.13
2018-02-09T00:14:10.778Z,973.13
2018-02-09T00:14:20.823Z,973.14
2018-02-09T00:14:30.896Z,973.11
2018-02-09T00:14:40.921Z,973.13
2018-02-09T00:14:51.000Z,973.14
2018-02-09T00:15:01.062Z,973.11
2018-02-09T00:15:11.106Z,973.13
2018-02-09T00:15:21.178Z,973.13
2018-02-09T00:15:31.212Z,973.11
2018-02-09T00:15:41.296Z,973.14
2018-02-09T00:15:51.347Z,973.13
2018-02-09T00:16:01.392Z,973.14
2018-02-09T00:16:11.463Z,973.14
2018-02-09T00:16:21.494Z,973.14
2018-02-09T00:16:31.578Z,973.14
2018-02-09T00:16:41.645Z,973.14
2018-02-09T00:16:51.688Z,973.14
2018-02-09T00:17:01.767Z,973.14
2018-02-09T00:17:11.802Z,973.14
2018-02-09T00:17:21.879Z,973.14
2018-02-09T00:17:31.902Z,973.14
2018-02-09T00:17:41.993Z,973.14
2018-02-09T00:17:52.048Z,973.16
2018-02-09T00:18:02.085Z,973.14
2018-02-09T00:18:12.160Z,973.16
2018-02-09T00:18:22.202Z,973.16
2018-02-09T00:18:32.286Z,973.14
2018-02-09T00:18:42.345Z,973.14
2018-02-09T00:18:52.391Z,973.14
2018-02-09T00:19:02.471Z,973.14
2018-02-09T00:19:12.491Z,973.14
2018-02-09T00:19:22.569Z,973.14
2018-02-09T00:19:32.633Z,973.16
2018-02-09T00:19:42.684Z,973.16
2018-02-09T00:19:52.760Z,973.16
2018-02-09T00:20:02.785Z,973.16
2018-02-09T00:20:12.761Z,973.14
2018-02-09T00:20:22.921Z,973.14
2018-02-09T00:20:32.963Z,973.16
2018-02-09T00:20:43.050Z,973.16
2018-02-09T00:20:53.132Z,973.14
2018-02-09T00:21:03.183Z,973.14
2018-02-09T00:21:13.265Z,973.14
2018-02-09T00:21:23.288Z,973.14
2018-02-09T00:21:33.352Z,973.14
2018-02-09T00:21:43.384Z,973.14
2018-02-09T00:21:53.453Z,973.14
2018-02-09T00:22:03.528Z,973.16
2018-02-09T00:22:13.562Z,973.14
2018-02-09T00:22:23.648Z,973.14
2018-02-09T00:22:33.663Z,973.16
2018-02-09T00:22:43.744Z,973.18
2018-02-09T00:22:53.820Z,973.16
2018-02-09T00:23:03.857Z,973.16
2018-02-09T00:23:13.920Z,973.16
2018-02-09T00:23:23.953Z,973.16
2018-02-09T00:23:34.029Z,973.13
2018-02-09T00:23:44.089Z,973.16
2018-02-09T00:23:54.132Z,973.13
2018-02-09T00:24:04.210Z,973.13
2018-02-09T00:24:14.263Z,973.16
2018-02-09T00:24:24.318Z,973.14
2018-02-09T00:24:34.395Z,973.16
2018-02-09T00:24:44.423Z,973.14
2018-02-09T00:24:54.510Z,973.16
2018-02-09T00:25:04.577Z,973.14
2018-02-09T00:25:14.615Z,973.13
2018-02-09T00:25:24.683Z,973.13
2018-02-09T00:25:34.725Z,973.16
2018-02-09T00:25:44.800Z,973.14
2018-02-09T00:25:54.867Z,973.14
2018-02-09T00:26:04.912Z,973.14
2018-02-09T00:26:14.986Z,973.13
2018-02-09T00:26:25.046Z,973.13
2018-02-09T00:26:34.998Z,973.14
2018-02-09T00:26:45.163Z,973.13
2018-02-09T00:26:55.201Z,973.14
2018-02-09T00:27:05.286Z,973.13
2018-02-09T00:27:15.352Z,973.14
2018-02-09T00:27:25.398Z,973.13
2018-02-09T00:27:35.476Z,973.14
2018-02-09T00:27:45.525Z,973.14
2018-02-09T00:27:55.575Z,973.16
2018-02-09T00:28:05.649Z,973.16
2018-02-09T00:28:15.688Z,973.16
2018-02-09T00:28:25.770Z,973.14
2018-02-09T00:28:35.794Z,973.14
2018-02-09T00:28:45.877Z,973.14
2018-02-09T00:28:55.927Z,973.16
2018-02-09T00:29:06.260Z,973.16
2018-02-09T00:29:16.048Z,973.13
2018-02-09T00:29:26.091Z,973.13
2018-02-09T00:29:36.168Z,973.14
2018-02-09T00:29:46.195Z,973.14
2018-02-09T00:29:56.273Z,973.14
2018-02-09T00:30:06.335Z,973.14
2018-02-09T00:30:16.382Z,973.14
2018-02-09T00:30:26.455Z,973.14
2018-02-09T00:30:36.484Z,973.16
2018-02-09T00:30:46.457Z,973.13
2018-02-09T00:30:56.631Z,973.14
2018-02-09T00:31:06.682Z,973.14
2018-02-09T00:31:16.749Z,973.14
2018-02-09T00:31:26.799Z,973.14
2018-02-09T00:31:36.856Z,973.14
2018-02-09T00:31:46.924Z,973.13
2018-02-09T00:31:56.966Z,973.13
2018-02-09T00:32:07.030Z,973.14
2018-02-09T00:32:17.066Z,973.14
2018-02-09T00:32:27.144Z,973.13
2018-02-09T00:32:37.177Z,973.16
2018-02-09T00:32:47.259Z,973.13
2018-02-09T00:32:57.329Z,973.16
2018-02-09T00:33:07.350Z,973.13
2018-02-09T00:33:17.430Z,973.14
2018-02-09T00:33:27.461Z,973.14
2018-02-09T00:33:37.536Z,973.14
2018-02-09T00:33:47.565Z,973.14
2018-02-09T00:33:57.529Z,973.13
2018-02-09T00:34:07.722Z,973.14
2018-02-09T00:34:17.744Z,973.13
2018-02-09T00:34:27.830Z,973.13
2018-02-09T00:34:37.899Z,973.13
2018-02-09T00:34:47.934Z,973.14
2018-02-09T00:34:58.011Z,973.14
2018-02-09T00:35:08.068Z,973.14
2018-02-09T00:35:18.119Z,973.13
2018-02-09T00:35:28.180Z,973.13
2018-02-09T00:35:38.222Z,973.14
2018-02-09T00:35:48.305Z,973.14
2018-02-09T00:35:58.331Z,973.14
2018-02-09T00:36:08.413Z,973.14
2018-02-09T00:36:18.502Z,973.14
2018-02-09T00:36:28.527Z,973.11
2018-02-09T00:36:38.601Z,973.13
2018-02-09T00:36:48.672Z,973.14
2018-02-09T00:36:58.714Z,973.11
2018-02-09T00:37:08.785Z,973.13
2018-02-09T00:37:18.714Z,973.13
2018-02-09T00:37:28.899Z,973.11
2018-02-09T00:37:38.971Z,973.13
2018-02-09T00:37:49.001Z,973.11
2018-02-09T00:37:59.073Z,973.11
2018-02-09T00:38:09.139Z,973.11
2018-02-09T00:38:19.197Z,973.13
2018-02-09T00:38:29.270Z,973.13
2018-02-09T00:38:39.302Z,973.13
2018-02-09T00:38:49.381Z,973.11
2018-02-09T00:38:59.452Z,973.13
2018-02-09T00:39:09.493Z,973.13
2018-02-09T00:39:19.566Z,973.11
2018-02-09T00:39:29.588Z,973.11
2018-02-09T00:39:39.678Z,973.11
2018-02-09T00:39:49.731Z,973.14
2018-02-09T00:39:59.773Z,973.09
2018-02-09T00:40:09.838Z,973.11
2018-02-09T00:40:19.865Z,973.11
2018-02-09T00:40:29.938Z,973.11
2018-02-09T00:40:40.015Z,973.13
2018-02-09T00:40:50.061Z,973.11
2018-02-09T00:41:00.131Z,973.14
2018-02-09T00:41:10.163Z,973.11
2018-02-09T00:41:20.235Z,973.09
2018-02-09T00:41:30.158Z,973.11
2018-02-09T00:41:40.346Z,973.11
2018-02-09T00:41:50.417Z,973.11
2018-02-09T00:42:00.482Z,973.13
2018-02-09T00:42:10.523Z,973.11
2018-02-09T00:42:20.452Z,973.11
2018-02-09T00:42:30.636Z,973.11
2018-02-09T00:42:40.703Z,973.11
2018-02-09T00:42:50.782Z,973.11
2018-02-09T00:43:00.823Z,973.11
2018-02-09T00:43:10.885Z,973.09
2018-02-09T00:43:20.931Z,973.11
2018-02-09T00:43:31.019Z,973.11
2018-02-09T00:43:41.044Z,973.11
2018-02-09T00:43:51.123Z,973.09
2018-02-09T00:44:01.189Z,973.11
2018-02-09T00:44:11.250Z,973.11
2018-02-09T00:44:21.294Z,973.11
2018-02-09T00:44:31.332Z,973.11
2018-02-09T00:44:41.399Z,973.11
2018-02-09T00:44:51.433Z,973.11
2018-02-09T00:45:01.517Z,973.11
2018-02-09T00:45:11.580Z,973.11
2018-02-09T00:45:21.632Z,973.11
2018-02-09T00:45:31.694Z,973.11
2018-02-09T00:45:41.736Z,973.11
2018-02-09T00:45:51.808Z,973.11
2018-02-09T00:46:01.880Z,973.11
2018-02-09T00:46:11.924Z,973.09
2018-02-09T00:46:22.006Z,973.11
2018-02-09T00:46:32.079Z,973.11
2018-02-09T00:46:42.109Z,973.11
2018-02-09T00:46:52.195Z,973.11
2018-02-09T00:47:02.247Z,973.11
2018-02-09T00:47:12.288Z,973.11
2018-02-09T00:47:22.364Z,973.11
2018-02-09T00:47:32.395Z,973.11
2018-02-09T00:47:42.465Z,973.11
2018-02-09T00:47:52.491Z,973.09
2018-02-09T00:48:02.574Z,973.11
2018-02-09T00:48:12.638Z,973.11
2018-02-09T00:48:22.669Z,973.11
2018-02-09T00:48:32.753Z,973.11
2018-02-09T00:48:42.804Z,973.11
2018-02-09T00:48:52.846Z,973.09
2018-02-09T00:49:02.920Z,973.11
2018-02-09T00:49:13.012Z,973.09
2018-02-09T00:49:23.035Z,973.11
2018-02-09T00:49:33.087Z,973.09
2018-02-09T00:49:43.140Z,973.09
2018-02-09T00:49:53.206Z,973.09
2018-02-09T00:50:03.246Z,973.07
2018-02-09T00:50:13.325Z,973.09
2018-02-09T00:50:23.381Z,973.05
2018-02-09T00:50:33.433Z,973.09
2018-02-09T00:50:43.510Z,973.05
2018-02-09T00:50:53.571Z,973.05
2018-02-09T00:51:03.621Z,973.05
2018-02-09T00:51:13.686Z,973.07
2018-02-09T00:51:23.767Z,973.05
2018-02-09T00:51:33.790Z,973.05
2018-02-09T00:51:43.860Z,973.05
2018-02-09T00:51:53.905Z,973.05
2018-02-09T00:52:03.856Z,973.05
2018-02-09T00:52:14.009Z,973.07
2018-02-09T00:52:24.079Z,973.05
2018-02-09T00:52:34.115Z,973.07
2018-02-09T00:52:44.198Z,973.07
2018-02-09T00:52:54.261Z,973.05
2018-02-09T00:53:04.308Z,973.07
2018-02-09T00:53:14.379Z,973.07
2018-02-09T00:53:24.408Z,973.07
2018-02-09T00:53:34.481Z,973.05
2018-02-09T00:53:44.556Z,973.07
2018-02-09T00:53:54.595Z,973.07
2018-02-09T00:54:04.665Z,973.05
2018-02-09T00:54:14.734Z,973.07
2018-02-09T00:54:24.785Z,973.03
2018-02-09T00:54:34.841Z,973.03
2018-02-09T00:54:44.880Z,973.07
2018-02-09T00:54:54.957Z,973.07
2018-02-09T00:55:04.984Z,973.05
2018-02-09T00:55:15.058Z,973.07
2018-02-09T00:55:24.977Z,973.03
2018-02-09T00:55:35.154Z,973.05
2018-02-09T00:55:45.246Z,973.05
2018-02-09T00:55:55.322Z,973.05
2018-02-09T00:56:05.354Z,973.07
2018-02-09T00:56:15.436Z,973.05
2018-02-09T00:56:25.470Z,973.05
2018-02-09T00:56:35.542Z,973.05
2018-02-09T00:56:45.630Z,973.05
2018-02-09T00:56:55.665Z,973.03
2018-02-09T00:57:05.732Z,973.03
2018-02-09T00:57:15.759Z,973.05
2018-02-09T00:57:25.823Z,973.05
2018-02-09T00:57:35.891Z,973.07
2018-02-09T00:57:45.945Z,973.07
2018-02-09T00:57:56.023Z,973.03
2018-02-09T00:58:06.041Z,973.03
2018-02-09T00:58:16.124Z,973.05
2018-02-09T00:58:26.179Z,973.07
2018-02-09T00:58:46.292Z,973.03
2018-02-09T00:58:56.335Z,973.05
2018-02-09T00:59:06.407Z,973.07
2018-02-09T00:59:16.705Z,973.05
2018-02-09T00:59:26.514Z,973.05
2018-02-09T00:59:36.587Z,973.05
2018-02-09T00:59:46.629Z,973.05
2018-02-09T00:59:56.694Z,973.05
2018-02-09T01:00:06.766Z,973.05
2018-02-09T01:00:16.814Z,973.05
2018-02-09T01:00:26.882Z,973.07
2018-02-09T01:00:36.934Z,973.05
2018-02-09T01:00:46.997Z,973.07
2018-02-09T01:00:57.071Z,973.07
2018-02-09T01:01:07.093Z,973.05
2018-02-09T01:01:17.162Z,973.05
2018-02-09T01:01:27.235Z,973.07
2018-02-09T01:01:37.168Z,973.05
2018-02-09T01:01:47.345Z,973.07
2018-02-09T01:01:57.379Z,973.05
2018-02-09T01:02:07.451Z,973.07
2018-02-09T01:02:17.517Z,973.07
2018-02-09T01:02:27.556Z,973.09
2018-02-09T01:02:37.641Z,973.07
2018-02-09T01:02:47.701Z,973.07
2018-02-09T01:02:57.754Z,973.07
2018-02-09T01:03:07.819Z,973.07
2018-02-09T01:03:17.880Z,973.07
2018-02-09T01:03:27.926Z,973.07
2018-02-09T01:03:37.998Z,973.07
2018-02-09T01:03:48.042Z,973.05
2018-02-09T01:03:58.111Z,973.07
2018-02-09T01:04:08.176Z,973.07
2018-02-09T01:04:18.221Z,973.09
2018-02-09T01:04:28.293Z,973.09
2018-02-09T01:04:38.330Z,973.07
2018-02-09T01:04:48.411Z,973.09
2018-02-09T01:04:58.332Z,973.09
2018-02-09T01:05:08.525Z,973.09
2018-02-09T01:05:18.488Z,973.09
2018-02-09T01:05:28.662Z,973.09
2018-02-09T01:05:38.604Z,973.09
2018-02-09T01:05:48.793Z,973.09
2018-02-09T01:05:58.821Z,973.09
2018-02-09T01:06:08.893Z,973.09
2018-02-09T01:06:18.927Z,973.09
2018-02-09T01:06:29.014Z,973.11
2018-02-09T01:06:39.071Z,973.09
2018-02-09T01:06:49.106Z,973.09
2018-02-09T01:06:59.029Z,973.11
2018-02-09T01:07:09.229Z,973.11
2018-02-09T01:07:19.294Z,973.13
2018-02-09T01:07:29.356Z,973.13
2018-02-09T01:07:39.409Z,973.11
2018-02-09T01:07:49.484Z,973.13
2018-02-09T01:07:59.526Z,973.13
2018-02-09T01:08:09.601Z,973.13
2018-02-09T01:08:19.634Z,973.13
2018-02-09T01:08:29.710Z,973.11
2018-02-09T01:08:39.770Z,973.09
2018-02-09T01:08:49.823Z,973.13
2018-02-09T01:08:59.890Z,973.13
2018-02-09T01:09:09.925Z,973.13
2018-02-09T01:09:20.012Z,973.11
2018-02-09T01:09:30.031Z,973.13
2018-02-09T01:09:40.117Z,973.14
2018-02-09T01:09:50.179Z,973.13
2018-02-09T01:10:00.226Z,973.14
2018-02-09T01:10:10.307Z,973.14
2018-02-09T01:10:20.326Z,973.14
2018-02-09T01:10:30.406Z,973.14
2018-02-09T01:10:40.479Z,973.14
2018-02-09T01:10:50.508Z,973.11
2018-02-09T01:11:00.587Z,973.13
2018-02-09T01:11:10.659Z,973.13
2018-02-09T01:11:20.691Z,973.11
2018-02-09T01:11:30.773Z,973.13
2018-02-09T01:11:40.820Z,973.13
2018-02-09T01:12:00.789Z,973.13
2018-02-09T01:12:10.970Z,973.14
2018-02-09T01:12:21.045Z,973.13
2018-02-09T01:12:31.114Z,973.09
2018-02-09T01:12:41.158Z,973.09
2018-02-09T01:12:51.229Z,973.13
2018-02-09T01:13:01.293Z,973.11
2018-02-09T01:13:11.344Z,973.13
2018-02-09T01:13:21.408Z,973.11
2018-02-09T01:13:31.450Z,973.07
2018-02-09T01:13:41.523Z,973.07
2018-02-09T01:13:51.598Z,973.11
2018-02-09T01:14:01.626Z,973.09
2018-02-09T01:14:11.627Z,973.07
2018-02-09T01:14:21.730Z,973.07
2018-02-09T01:14:31.803Z,973.09
2018-02-09T01:14:41.874Z,973.09
2018-02-09T01:14:51.909Z,973.05
2018-02-09T01:15:01.987Z,973.05
2018-02-09T01:15:12.055Z,973.07
2018-02-09T01:15:22.098Z,973.05
2018-02-09T01:15:32.171Z,973.07
2018-02-09T01:15:42.216Z,973.05
2018-02-09T01:15:52.299Z,973.05
2018-02-09T01:16:02.362Z,973.05
2018-02-09T01:16:12.402Z,973.05
2018-02-09T01:16:22.484Z,973.05
2018-02-09T01:16:32.538Z,973.03
2018-02-09T01:16:42.588Z,973.05
2018-02-09T01:16:52.658Z,973.03
2018-02-09T01:17:02.726Z,973.03
2018-02-09T01:17:12.759Z,973.01
2018-02-09T01:17:22.845Z,973.03
2018-02-09T01:17:32.905Z,973.05
2018-02-09T01:17:42.954Z,973.03
2018-02-09T01:17:53.024Z,973.03
2018-02-09T01:18:03.084Z,973.03
2018-02-09T01:18:13.126Z,973.01
2018-02-09T01:18:23.210Z,973.03
2018-02-09T01:18:33.233Z,973.03
2018-02-09T01:18:43.313Z,973.03
2018-02-09T01:18:53.386Z,973.03
2018-02-09T01:19:03.448Z,973.03
2018-02-09T01:19:13.504Z,973.03
2018-02-09T01:19:23.595Z,973.03
2018-02-09T01:19:33.601Z,973.05
2018-02-09T01:19:43.674Z,973.03
2018-02-09T01:19:53.746Z,973.03
2018-02-09T01:20:03.790Z,973.05
2018-02-09T01:20:13.862Z,973.05
2018-02-09T01:20:23.984Z,973.05
2018-02-09T01:20:34.002Z,973.05
2018-02-09T01:20:44.082Z,973.03
2018-02-09T01:20:54.160Z,973.05
2018-02-09T01:21:04.166Z,973.05
2018-02-09T01:21:14.224Z,973.03
2018-02-09T01:21:24.263Z,973.03
2018-02-09T01:21:34.357Z,973.05
2018-02-09T01:21:44.380Z,973.05
2018-02-09T01:21:54.345Z,973.05
2018-02-09T01:22:04.519Z,973.05
2018-02-09T01:22:14.558Z,973.05
2018-02-09T01:22:24.635Z,973.05
2018-02-09T01:22:34.704Z,973.05
2018-02-09T01:22:44.742Z,973.03
2018-02-09T01:22:54.823Z,973.03
2018-02-09T01:23:04.857Z,973.01
2018-02-09T01:23:14.927Z,973.01
2018-02-09T01:23:24.989Z,973.03
2018-02-09T01:23:35.043Z,973.05
2018-02-09T01:23:45.100Z,973.05
2018-02-09T01:23:55.148Z,973.01
2018-02-09T01:24:05.219Z,973.03
2018-02-09T01:24:15.254Z,973.03
2018-02-09T01:24:25.336Z,973.05
2018-02-09T01:24:35.248Z,973.01
2018-02-09T01:24:45.429Z,972.99
2018-02-09T01:24:55.501Z,973.01
2018-02-09T01:25:05.542Z,973.03
2018-02-09T01:25:15.612Z,973.03
2018-02-09T01:25:25.678Z,973.01
2018-02-09T01:25:35.717Z,973.01
2018-02-09T01:25:45.799Z,973.01
2018-02-09T01:25:55.864Z,972.99
2018-02-09T01:26:05.912Z,972.99
2018-02-09T01:26:15.974Z,972.97
2018-02-09T01:26:26.006Z,972.99
2018-02-09T01:26:36.086Z,972.97
2018-02-09T01:26:46.119Z,972.99
2018-02-09T01:26:56.194Z,972.97
2018-02-09T01:27:06.261Z,972.97
2018-02-09T01:27:16.306Z,972.97
2018-02-09T01:27:26.387Z,972.97
2018-02-09T01:27:36.412Z,972.97
2018-02-09T01:27:46.489Z,972.97
2018-02-09T01:27:56.564Z,972.95
2018-02-09T01:28:06.601Z,972.97
2018-02-09T01:28:16.673Z,972.95
2018-02-09T01:28:26.708Z,972.97
2018-02-09T01:28:36.781Z,972.97
2018-02-09T01:28:46.859Z,972.95
2018-02-09T01:28:56.898Z,972.95
2018-02-09T01:29:06.971Z,972.97
2018-02-09T01:29:17.004Z,972.97
2018-02-09T01:29:27.090Z,972.97
2018-02-09T01:29:37.158Z,972.97
2018-02-09T01:29:47.201Z,972.97
2018-02-09T01:29:57.273Z,972.97
2018-02-09T01:30:07.316Z,973.01
2018-02-09T01:30:17.388Z,972.97
2018-02-09T01:30:27.414Z,972.95
2018-02-09T01:30:37.486Z,972.99
2018-02-09T01:30:47.578Z,972.99
2018-02-09T01:30:57.605Z,972.99
2018-02-09T01:31:07.686Z,972.99
2018-02-09T01:31:17.749Z,973.01
2018-02-09T01:31:27.795Z,973.01
2018-02-09T01:31:37.862Z,972.99
2018-02-09T01:31:47.909Z,973.01
2018-02-09T01:31:57.979Z,973.01
2018-02-09T01:32:08.018Z,973.01
2018-02-09T01:32:18.093Z,973.01
2018-02-09T01:32:28.163Z,973.03
2018-02-09T01:32:38.202Z,973.03
2018-02-09T01:32:48.276Z,973.03
2018-02-09T01:32:58.308Z,973.05
2018-02-09T01:33:08.381Z,973.03
2018-02-09T01:33:18.452Z,973.05
2018-02-09T01:33:28.507Z,973.05
2018-02-09T01:33:38.561Z,973.05
2018-02-09T01:33:48.593Z,973.05
2018-02-09T01:33:58.666Z,973.05
2018-02-09T01:34:08.699Z,973.05
2018-02-09T01:34:18.772Z,973.03
2018-02-09T01:34:28.865Z,972.99
2018-02-09T01:34:38.887Z,973.05
2018-02-09T01:34:48.952Z,973.05
2018-02-09T01:34:58.998Z,973.03
2018-02-09T01:35:09.069Z,973.05
2018-02-09T01:35:19.103Z,973.05
2018-02-09T01:35:29.183Z,973.05
2018-02-09T01:35:39.244Z,973.07
2018-02-09T01:35:49.300Z,973.07
2018-02-09T01:35:59.373Z,973.05
2018-02-09T01:36:09.444Z,973.05
2018-02-09T01:36:19.490Z,972.99
2018-02-09T01:36:29.510Z,973.05
2018-02-09T01:36:39.625Z,972.99
2018-02-09T01:36:49.675Z,973.01
2018-02-09T01:36:59.718Z,973.01
2018-02-09T01:37:09.791Z,972.99
2018-02-09T01:37:19.852Z,973.05
2018-02-09T01:37:29.905Z,972.99
2018-02-09T01:37:39.972Z,973.01
2018-02-09T01:37:50.015Z,972.99
2018-02-09T01:38:00.082Z,972.99
2018-02-09T01:38:10.129Z,973.05
2018-02-09T01:38:20.208Z,972.97
2018-02-09T01:38:30.274Z,972.99
2018-02-09T01:38:40.308Z,972.99
2018-02-09T01:38:50.381Z,972.99
2018-02-09T01:39:00.445Z,972.97
2018-02-09T01:39:10.493Z,972.99
2018-02-09T01:39:20.567Z,972.99
2018-02-09T01:39:30.602Z,972.97
2018-02-09T01:39:40.680Z,972.99
2018-02-09T01:39:50.715Z,973.03
2018-02-09T01:40:00.794Z,973.03
2018-02-09T01:40:10.859Z,972.99
2018-02-09T01:40:20.907Z,972.97
2018-02-09T01:40:30.932Z,972.99
2018-02-09T01:40:41.016Z,972.97
2018-02-09T01:40:51.086Z,972.97
2018-02-09T01:41:01.125Z,972.97
2018-02-09T01:41:11.195Z,972.99
2018-02-09T01:41:21.227Z,972.99
2018-02-09T01:41:31.297Z,972.97
2018-02-09T01:41:41.331Z,972.99
2018-02-09T01:41:51.413Z,972.97
2018-02-09T01:42:01.501Z,972.99
2018-02-09T01:42:11.529Z,972.99
2018-02-09T01:42:21.606Z,972.97
2018-02-09T01:42:31.640Z,972.97
2018-02-09T01:42:41.717Z,972.97
2018-02-09T01:42:51.781Z,972.99
2018-02-09T01:43:01.825Z,972.97
2018-02-09T01:43:11.904Z,972.97
2018-02-09T01:43:21.969Z,972.97
2018-02-09T01:43:32.007Z,972.97
2018-02-09T01:43:42.075Z,972.97
2018-02-09T01:43:52.108Z,972.97
2018-02-09T01:44:02.241Z,972.97
2018-02-09T01:44:12.142Z,972.97
2018-02-09T01:44:22.298Z,972.97
2018-02-09T01:44:32.385Z,972.95
2018-02-09T01:44:42.409Z,972.95
2018-02-09T01:44:52.488Z,972.95
2018-02-09T01:45:02.509Z,972.95
2018-02-09T01:45:12.593Z,972.97
2018-02-09T01:45:22.655Z,972.97
2018-02-09T01:45:32.694Z,972.97
2018-02-09T01:45:42.782Z,972.97
2018-02-09T01:45:52.842Z,972.97
2018-02-09T01:46:02.888Z,972.97
2018-02-09T01:46:12.971Z,972.99
2018-02-09T01:46:23.004Z,972.97
2018-02-09T01:46:33.084Z,972.99
2018-02-09T01:46:43.149Z,972.99
2018-02-09T01:46:53.190Z,972.99
2018-02-09T01:47:03.266Z,972.97
2018-02-09T01:47:13.301Z,972.99
2018-02-09T01:47:23.380Z,972.97
2018-02-09T01:47:33.433Z,972.99
2018-02-09T01:47:43.487Z,972.99
2018-02-09T01:47:53.550Z,972.97
2018-02-09T01:48:03.590Z,972.99
2018-02-09T01:48:13.656Z,972.97
2018-02-09T01:48:23.692Z,972.97
2018-02-09T01:48:33.767Z,972.97
2018-02-09T01:48:43.799Z,972.97
2018-02-09T01:48:53.880Z,972.99
2018-02-09T01:49:03.941Z,972.99
2018-02-09T01:49:13.994Z,972.97
2018-02-09T01:49:24.063Z,972.97
2018-02-09T01:49:34.100Z,972.97
2018-02-09T01:49:44.173Z,972.97
2018-02-09T01:49:54.228Z,972.97
2018-02-09T01:50:04.268Z,972.97
2018-02-09T01:50:14.340Z,972.97
2018-02-09T01:50:24.374Z,972.97
2018-02-09T01:50:34.447Z,972.97
2018-02-09T01:50:44.522Z,972.95
2018-02-09T01:50:54.567Z,972.95
2018-02-09T01:51:04.639Z,972.97
2018-02-09T01:51:14.709Z,972.95
2018-02-09T01:51:24.636Z,972.95
2018-02-09T01:51:34.816Z,972.95
2018-02-09T01:51:44.909Z,972.95
2018-02-09T01:51:54.937Z,972.95
2018-02-09T01:52:04.999Z,972.95
2018-02-09T01:52:15.047Z,972.95
2018-02-09T01:52:25.111Z,972.95
2018-02-09T01:52:35.154Z,972.95
2018-02-09T01:52:45.218Z,972.93
2018-02-09T01:52:55.260Z,972.93
2018-02-09T01:53:05.343Z,972.93
2018-02-09T01:53:15.376Z,972.95
2018-02-09T01:53:25.449Z,972.95
2018-02-09T01:53:35.522Z,972.95
2018-02-09T01:53:45.554Z,972.93
2018-02-09T01:53:55.630Z,972.93
2018-02-09T01:54:05.717Z,972.93
2018-02-09T01:54:15.743Z,972.93
2018-02-09T01:54:25.810Z,972.93
2018-02-09T01:54:35.849Z,972.93
2018-02-09T01:54:45.923Z,972.93
2018-02-09T01:54:55.982Z,972.95
2018-02-09T01:55:06.031Z,972.93
2018-02-09T01:55:15.992Z,972.93
2018-02-09T01:55:26.168Z,972.93
2018-02-09T01:55:36.211Z,972.91
2018-02-09T01:55:46.290Z,972.91
2018-02-09T01:55:56.323Z,972.93
2018-02-09T01:56:06.407Z,972.93
2018-02-09T01:56:16.470Z,972.93
2018-02-09T01:56:26.513Z,972.95
2018-02-09T01:56:36.588Z,972.93
2018-02-09T01:56:46.612Z,972.95
2018-02-09T01:56:56.692Z,972.93
2018-02-09T01:57:06.769Z,972.93
2018-02-09T01:57:16.802Z,972.95
2018-02-09T01:57:26.871Z,972.93
2018-02-09T01:57:36.912Z,972.95
2018-02-09T01:57:46.985Z,972.93
2018-02-09T01:57:57.053Z,972.93
2018-02-09T01:58:07.088Z,972.95
2018-02-09T01:58:17.166Z,972.95
2018-02-09T01:58:27.198Z,972.93
2018-02-09T01:58:37.280Z,972.95
2018-02-09T01:58:47.339Z,972.93
2018-02-09T01:58:57.382Z,972.93
2018-02-09T01:59:07.452Z,972.93
2018-02-09T01:59:17.493Z,972.93
2018-02-09T01:59:27.569Z,972.91
2018-02-09T01:59:37.649Z,972.93
2018-02-09T01:59:47.681Z,972.93
2018-02-09T01:59:57.751Z,972.93
2018-02-09T02:00:07.781Z,972.93
2018-02-09T02:00:17.864Z,972.91
2018-02-09T02:00:27.899Z,972.93
2018-02-09T02:00:37.971Z,972.93
2018-02-09T02:00:48.049Z,972.91
2018-02-09T02:00:58.109Z,972.91
2018-02-09T02:01:08.174Z,972.91
2018-02-09T02:01:18.234Z,972.89
2018-02-09T02:01:28.281Z,972.91
2018-02-09T02:01:38.353Z,972.91
2018-02-09T02:01:48.376Z,972.89
2018-02-09T02:01:58.468Z,972.87
2018-02-09T02:02:08.528Z,972.87
2018-02-09T02:02:18.571Z,972.89
2018-02-09T02:02:28.645Z,972.89
2018-02-09T02:02:38.675Z,972.87
2018-02-09T02:02:48.756Z,972.91
2018-02-09T02:02:58.817Z,972.87
2018-02-09T02:03:08.865Z,972.89
2018-02-09T02:03:18.943Z,972.87
2018-02-09T02:03:29.000Z,972.89
2018-02-09T02:03:39.039Z,972.87
2018-02-09T02:03:49.112Z,972.85
2018-02-09T02:03:59.165Z,972.87
2018-02-09T02:04:09.229Z,972.87
2018-02-09T02:04:19.261Z,972.87
2018-02-09T02:04:29.333Z,972.87
2018-02-09T02:04:39.405Z,972.87
2018-02-09T02:04:49.432Z,972.87
2018-02-09T02:04:59.509Z,972.87
2018-02-09T02:05:09.543Z,972.87
2018-02-09T02:05:19.622Z,972.87
2018-02-09T02:05:29.678Z,972.85
2018-02-09T02:05:39.734Z,972.85
2018-02-09T02:05:49.803Z,972.87